Time;durP1;ratioP1;P1;durP2;ratioP2;P2;SDS_P1;SDS_P2;PMS_P1;PMS_P2;Temp;Humidity;BMP_temperature;BMP_pressure;BME280_temperature;BME280_humidity;BME280_pressure;Samples;Min_cycle;Max_cycle;Signal;HPM_P1;HPM_P2
2021/09/19 00:01:08;;;;;;;7.35;4.68;;;22.10;63.20;;;;;;5182474;28;20045;-62
2021/09/19 00:03:41;;;;;;;14.37;5.07;;;22.10;63.60;;;;;;5199486;28;20045;-62
2021/09/19 00:06:15;;;;;;;13.07;4.90;;;22.10;64.60;;;;;;5191228;28;20053;-62
2021/09/19 00:08:47;;;;;;;;;;;22.10;65.30;;;;;;5191583;28;20052;-61
2021/09/19 00:11:19;;;;;;;13.70;4.75;;;22.10;66.00;;;;;;5194802;28;19932;-62
2021/09/19 00:13:52;;;;;;;11.63;5.25;;;22.10;66.10;;;;;;5196804;28;20053;-62
2021/09/19 00:16:24;;;;;;;13.75;5.50;;;22.10;66.50;;;;;;5194770;28;20048;-62
2021/09/19 00:18:57;;;;;;;11.75;4.50;;;22.10;66.80;;;;;;5186220;28;20053;-63
2021/09/19 00:21:29;;;;;;;19.77;5.57;;;22.10;66.90;;;;;;5197422;28;20049;-62
2021/09/19 00:24:02;;;;;;;14.68;5.50;;;22.20;67.20;;;;;;5191817;28;20064;-62
2021/09/19 00:26:34;;;;;;;11.40;5.10;;;22.20;67.30;;;;;;5199367;28;20046;-63
2021/09/19 00:29:07;;;;;;;8.02;5.47;;;22.20;67.40;;;;;;5193329;28;20051;-62
2021/09/19 00:31:39;;;;;;;12.32;5.50;;;22.20;67.50;;;;;;5195519;28;20068;-62
2021/09/19 00:34:12;;;;;;;10.77;4.83;;;22.20;67.70;;;;;;5198317;28;20112;-62
2021/09/19 00:36:44;;;;;;;13.27;4.40;;;22.20;67.70;;;;;;5211381;28;20797;-61
2021/09/19 00:39:16;;;;;;;17.33;5.18;;;22.20;67.90;;;;;;5201919;28;20056;-61
2021/09/19 00:41:49;;;;;;;11.48;5.47;;;22.20;68.00;;;;;;5203335;28;20042;-61
2021/09/19 00:44:28;;;;;;;10.68;4.75;;;22.20;68.00;;;;;;5202542;28;20050;-62
2021/09/19 00:47:00;;;;;;;7.25;4.28;;;22.20;68.00;;;;;;5197646;28;20503;-62
2021/09/19 00:49:32;;;;;;;10.18;4.75;;;22.20;68.20;;;;;;5197350;28;20048;-62
2021/09/19 00:52:05;;;;;;;12.65;5.35;;;22.20;68.20;;;;;;5201196;28;20053;-62
2021/09/19 00:54:39;;;;;;;11.85;5.05;;;22.20;68.20;;;;;;5197864;28;20037;-62
2021/09/19 00:57:14;;;;;;;15.23;5.05;;;22.20;68.30;;;;;;5188084;28;20492;-60
2021/09/19 00:59:52;;;;;;;10.45;5.10;;;22.20;68.40;;;;;;5196687;28;20045;-59
2021/09/19 01:02:26;;;;;;;6.97;4.35;;;22.20;68.40;;;;;;5195526;28;20049;-60
2021/09/19 01:04:59;;;;;;;12.25;4.95;;;22.20;68.50;;;;;;5197660;28;20112;-61
2021/09/19 01:07:31;;;;;;;18.42;4.78;;;22.20;68.50;;;;;;5201079;28;20044;-60
2021/09/19 01:10:05;;;;;;;7.40;4.65;;;22.20;68.60;;;;;;5200060;28;20541;-61
2021/09/19 01:12:40;;;;;;;4.63;4.10;;;22.20;68.60;;;;;;5202834;28;20047;-61
2021/09/19 01:15:13;;;;;;;8.77;4.97;;;22.20;68.60;;;;;;5170813;28;20057;-60
2021/09/19 01:17:46;;;;;;;4.43;3.85;;;22.20;68.70;;;;;;5195194;28;20053;-62
2021/09/19 01:20:18;;;;;;;12.00;4.50;;;22.20;68.70;;;;;;5198856;28;20507;-61
2021/09/19 01:23:09;;;;;;;7.67;4.43;;;22.20;68.70;;;;;;5201305;28;20065;-62
2021/09/19 01:25:43;;;;;;;7.05;4.60;;;22.20;68.70;;;;;;5194434;28;20052;-62
2021/09/19 01:28:16;;;;;;;10.82;4.32;;;22.20;68.80;;;;;;5189682;28;20048;-61
2021/09/19 01:30:48;;;;;;;9.55;4.43;;;22.20;68.80;;;;;;5197450;28;21309;-62
2021/09/19 01:33:21;;;;;;;7.60;4.78;;;22.20;68.80;;;;;;5197586;28;20536;-61
2021/09/19 01:35:57;;;;;;;10.38;4.75;;;22.20;68.80;;;;;;5194392;28;20068;-61
2021/09/19 01:38:30;;;;;;;10.48;4.68;;;22.20;68.90;;;;;;5192185;28;20045;-62
2021/09/19 01:41:03;;;;;;;10.57;4.80;;;22.20;69.00;;;;;;5195370;28;20529;-62
2021/09/19 01:43:35;;;;;;;7.97;4.85;;;22.20;69.10;;;;;;5201841;28;20083;-61
2021/09/19 01:46:07;;;;;;;7.60;4.55;;;22.20;69.00;;;;;;5203312;28;20056;-61
2021/09/19 01:48:40;;;;;;;7.88;4.57;;;22.20;69.10;;;;;;5193947;28;20053;-62
2021/09/19 01:51:13;;;;;;;8.98;4.57;;;22.20;69.10;;;;;;5197565;28;20065;-61
2021/09/19 01:53:48;;;;;;;8.37;4.70;;;22.20;69.20;;;;;;5198709;28;20048;-62
2021/09/19 01:56:22;;;;;;;6.18;4.65;;;22.10;69.20;;;;;;5193567;28;20624;-62
2021/09/19 01:58:55;;;;;;;6.43;4.40;;;22.10;69.20;;;;;;5192197;28;20048;-62
2021/09/19 02:01:30;;;;;;;7.55;5.00;;;22.10;69.20;;;;;;5195693;28;20545;-61
2021/09/19 02:04:03;;;;;;;6.93;4.28;;;22.10;69.20;;;;;;5195942;28;20629;-62
2021/09/19 02:06:35;;;;;;;5.93;4.37;;;22.20;69.30;;;;;;5194367;28;20510;-62
2021/09/19 02:09:08;;;;;;;7.32;4.82;;;22.10;69.30;;;;;;5199622;28;20045;-62
2021/09/19 02:11:40;;;;;;;9.85;4.88;;;22.10;69.30;;;;;;5201591;28;20040;-61
2021/09/19 02:14:12;;;;;;;5.22;4.20;;;22.10;69.30;;;;;;5191831;28;20049;-62
2021/09/19 02:16:45;;;;;;;7.18;4.13;;;22.10;69.30;;;;;;5190820;28;20080;-62
2021/09/19 02:19:18;;;;;;;6.43;5.10;;;22.10;69.20;;;;;;5193560;28;20572;-62
2021/09/19 02:21:51;;;;;;;8.20;4.03;;;22.10;69.20;;;;;;5192295;28;20519;-62
2021/09/19 02:24:23;;;;;;;9.95;4.32;;;22.10;69.20;;;;;;5194992;28;20702;-63
2021/09/19 02:26:55;;;;;;;9.65;4.30;;;22.10;69.30;;;;;;5195441;28;20045;-63
2021/09/19 02:29:28;;;;;;;6.80;4.03;;;22.10;69.30;;;;;;5195112;28;20508;-63
2021/09/19 02:32:00;;;;;;;5.87;4.47;;;22.10;69.40;;;;;;5196322;28;20517;-61
2021/09/19 02:34:34;;;;;;;;;;;22.10;69.30;;;;;;5196981;28;20061;-61
2021/09/19 02:37:06;;;;;;;7.53;4.13;;;22.00;69.20;;;;;;5194462;28;19925;-62
2021/09/19 02:39:39;;;;;;;6.05;3.90;;;22.00;69.30;;;;;;5197900;28;20063;-61
2021/09/19 02:42:11;;;;;;;8.07;3.72;;;22.10;69.30;;;;;;5195216;28;20053;-61
2021/09/19 02:44:44;;;;;;;6.97;4.47;;;22.00;69.30;;;;;;5193867;28;20037;-62
2021/09/19 02:47:16;;;;;;;9.52;4.38;;;22.00;69.20;;;;;;5194700;28;20608;-61
2021/09/19 02:49:49;;;;;;;10.73;4.18;;;22.00;69.30;;;;;;5193093;28;20041;-62
2021/09/19 02:52:21;;;;;;;6.82;4.00;;;22.00;69.40;;;;;;5187938;28;20052;-61
2021/09/19 02:54:53;;;;;;;9.48;4.13;;;22.00;69.30;;;;;;5192832;28;20053;-61
2021/09/19 02:57:26;;;;;;;7.00;3.95;;;22.00;69.30;;;;;;5198635;28;20045;-61
2021/09/19 02:59:58;;;;;;;6.00;3.80;;;22.00;69.40;;;;;;5202578;28;20052;-62
2021/09/19 03:02:30;;;;;;;12.60;4.35;;;22.00;69.40;;;;;;5197878;28;20055;-61
2021/09/19 03:05:05;;;;;;;12.50;4.57;;;22.00;69.40;;;;;;5199183;28;20053;-61
2021/09/19 03:07:38;;;;;;;13.10;4.53;;;22.00;69.50;;;;;;5201590;28;20506;-62
2021/09/19 03:10:13;;;;;;;6.40;4.10;;;22.00;69.50;;;;;;5195461;28;20046;-62
2021/09/19 03:12:45;;;;;;;6.85;4.32;;;22.00;69.40;;;;;;5195193;28;20057;-62
2021/09/19 03:15:18;;;;;;;7.03;3.92;;;22.00;69.40;;;;;;5196509;28;20539;-62
2021/09/19 03:17:51;;;;;;;9.32;4.80;;;22.00;69.50;;;;;;5197052;28;20045;-61
2021/09/19 03:20:23;;;;;;;10.93;4.10;;;22.00;69.60;;;;;;5199550;28;20060;-63
2021/09/19 03:22:55;;;;;;;7.60;3.83;;;22.00;69.60;;;;;;5189944;28;20045;-62
2021/09/19 03:25:28;;;;;;;6.28;4.10;;;22.00;69.60;;;;;;5195855;28;20049;-62
2021/09/19 03:28:01;;;;;;;19.40;4.25;;;22.00;69.60;;;;;;5196859;28;20042;-61
2021/09/19 03:30:33;;;;;;;10.73;4.53;;;22.00;69.80;;;;;;5199629;28;20048;-62
2021/09/19 03:33:05;;;;;;;7.13;4.60;;;22.00;69.60;;;;;;5197529;28;20049;-62
2021/09/19 03:35:38;;;;;;;6.20;4.05;;;22.00;69.60;;;;;;5195950;28;20532;-62
2021/09/19 03:38:10;;;;;;;5.88;4.10;;;22.00;69.60;;;;;;5193990;28;20860;-61
2021/09/19 03:40:43;;;;;;;6.90;4.10;;;22.00;69.60;;;;;;5192154;28;20049;-62
2021/09/19 03:43:17;;;;;;;5.30;4.22;;;22.00;69.60;;;;;;5198017;28;20053;-61
2021/09/19 03:45:49;;;;;;;5.30;4.05;;;22.00;69.60;;;;;;5197489;28;20041;-62
2021/09/19 03:48:21;;;;;;;8.80;4.30;;;22.00;69.50;;;;;;5190405;28;20513;-62
2021/09/19 03:50:54;;;;;;;5.00;3.65;;;22.00;69.50;;;;;;5194160;28;20045;-62
2021/09/19 03:53:26;;;;;;;6.35;3.92;;;22.00;69.40;;;;;;5197018;28;20045;-61
2021/09/19 03:55:59;;;;;;;6.47;4.22;;;22.00;69.50;;;;;;5195910;28;20051;-61
2021/09/19 03:58:31;;;;;;;8.25;3.90;;;22.00;69.50;;;;;;5198343;28;20041;-62
2021/09/19 04:01:04;;;;;;;4.60;3.70;;;22.00;69.50;;;;;;5195303;28;20049;-62
2021/09/19 04:03:36;;;;;;;4.93;3.50;;;21.90;69.40;;;;;;5199094;28;20413;-61
2021/09/19 04:06:09;;;;;;;3.92;3.53;;;22.00;69.40;;;;;;5199518;28;20049;-61
2021/09/19 04:08:42;;;;;;;4.37;3.83;;;21.90;69.40;;;;;;5202820;28;20048;-63
2021/09/19 04:11:14;;;;;;;4.45;3.65;;;21.90;69.20;;;;;;5192991;28;20523;-62
2021/09/19 04:13:47;;;;;;;6.18;3.88;;;22.00;69.40;;;;;;5197701;28;20048;-61
2021/09/19 04:16:19;;;;;;;6.18;3.63;;;21.90;69.30;;;;;;5193832;28;20045;-61
2021/09/19 04:18:51;;;;;;;3.78;3.25;;;21.90;69.40;;;;;;5194863;28;20737;-62
2021/09/19 04:21:24;;;;;;;6.22;3.88;;;21.90;69.50;;;;;;5196105;28;20092;-61
2021/09/19 04:23:56;;;;;;;4.40;3.25;;;21.90;69.50;;;;;;5199109;28;20053;-61
2021/09/19 04:26:29;;;;;;;5.43;3.33;;;21.90;69.30;;;;;;5201165;28;20037;-61
2021/09/19 04:29:01;;;;;;;4.47;3.65;;;21.90;69.30;;;;;;5197502;28;20056;-62
2021/09/19 04:31:33;;;;;;;4.80;3.55;;;21.90;69.30;;;;;;5197964;28;20064;-61
2021/09/19 04:34:06;;;;;;;5.07;3.95;;;21.90;69.40;;;;;;5203382;28;20052;-63
2021/09/19 04:36:38;;;;;;;7.72;3.80;;;21.90;69.50;;;;;;5203008;28;20049;-61
2021/09/19 04:39:11;;;;;;;7.03;3.63;;;21.90;69.50;;;;;;5201965;28;20048;-62
2021/09/19 04:41:43;;;;;;;5.82;3.95;;;21.90;69.50;;;;;;5201891;28;20045;-62
2021/09/19 04:44:16;;;;;;;6.80;3.97;;;21.90;69.40;;;;;;5197599;28;20052;-61
2021/09/19 04:46:48;;;;;;;11.27;4.00;;;21.90;69.40;;;;;;5199249;28;20060;-62
2021/09/19 04:49:21;;;;;;;6.72;3.72;;;21.90;69.60;;;;;;5196935;28;20184;-61
2021/09/19 04:51:53;;;;;;;7.32;3.40;;;21.90;69.50;;;;;;5191702;28;20064;-61
2021/09/19 04:54:26;;;;;;;3.95;3.47;;;21.90;69.50;;;;;;5197172;28;20047;-61
2021/09/19 04:56:59;;;;;;;5.00;3.10;;;21.90;69.40;;;;;;5199417;28;20052;-62
2021/09/19 04:59:31;;;;;;;5.60;3.70;;;21.90;69.50;;;;;;5200624;28;20060;-61
2021/09/19 05:02:05;;;;;;;4.47;3.80;;;21.90;69.40;;;;;;5199472;28;20045;-61
2021/09/19 05:04:38;;;;;;;4.65;3.17;;;21.90;69.40;;;;;;5197183;28;20056;-62
2021/09/19 05:07:10;;;;;;;6.43;3.90;;;21.90;69.40;;;;;;5201561;28;20052;-62
2021/09/19 05:09:43;;;;;;;5.15;3.38;;;21.90;69.40;;;;;;5197818;28;20044;-61
2021/09/19 05:12:15;;;;;;;8.07;3.65;;;21.90;69.40;;;;;;5196835;28;20056;-62
2021/09/19 05:14:49;;;;;;;5.78;3.70;;;21.90;69.40;;;;;;5202701;28;20041;-62
2021/09/19 05:17:22;;;;;;;4.50;3.58;;;21.90;69.40;;;;;;5203910;28;20056;-62
2021/09/19 05:19:55;;;;;;;6.03;3.45;;;21.90;69.40;;;;;;5202215;28;20060;-62
2021/09/19 05:22:27;;;;;;;5.22;3.75;;;21.80;69.40;;;;;;5195096;28;20049;-62
2021/09/19 05:25:00;;;;;;;6.07;3.72;;;21.90;69.40;;;;;;5198448;28;20048;-62
2021/09/19 05:27:32;;;;;;;9.53;3.87;;;21.80;69.40;;;;;;5197854;28;20057;-62
2021/09/19 05:30:06;;;;;;;6.97;3.47;;;21.80;70.10;;;;;;5194092;28;20057;-61
2021/09/19 05:32:38;;;;;;;4.30;3.23;;;21.80;69.40;;;;;;5180803;28;20048;-62
2021/09/19 05:35:11;;;;;;;6.28;3.50;;;21.80;69.40;;;;;;5186590;28;20041;-62
2021/09/19 05:37:43;;;;;;;9.00;4.00;;;21.80;69.40;;;;;;5192295;28;20049;-61
2021/09/19 05:40:16;;;;;;;13.23;3.75;;;21.80;69.30;;;;;;5183273;28;20306;-61
2021/09/19 05:42:48;;;;;;;11.10;3.90;;;21.80;69.50;;;;;;5196100;28;20498;-61
2021/09/19 05:45:21;;;;;;;5.82;3.50;;;21.80;69.50;;;;;;5190379;28;20061;-61
2021/09/19 05:47:53;;;;;;;6.78;3.35;;;21.80;69.50;;;;;;5188508;28;20048;-61
2021/09/19 05:50:26;;;;;;;8.05;2.95;;;21.80;69.50;;;;;;5185305;28;20042;-62
2021/09/19 05:52:58;;;;;;;7.10;3.47;;;21.80;69.50;;;;;;5188110;28;20045;-61
2021/09/19 05:55:30;;;;;;;12.27;3.90;;;21.80;69.40;;;;;;5177702;28;20045;-64
2021/09/19 05:58:03;;;;;;;7.18;3.33;;;21.80;69.50;;;;;;5176130;28;20052;-62
2021/09/19 06:00:35;;;;;;;8.57;3.80;;;21.80;69.40;;;;;;5186909;28;20045;-62
2021/09/19 06:03:08;;;;;;;6.07;3.17;;;21.80;69.40;;;;;;5187042;28;20048;-64
2021/09/19 06:05:41;;;;;;;6.07;3.60;;;21.80;69.30;;;;;;5150619;28;20049;-65
2021/09/19 06:08:13;;;;;;;10.27;3.55;;;21.80;69.50;;;;;;5176508;28;20334;-64
2021/09/19 06:10:46;;;;;;;3.72;3.17;;;21.80;69.40;;;;;;5172810;28;20064;-64
2021/09/19 06:13:18;;;;;;;4.17;3.40;;;21.80;69.40;;;;;;5203638;28;20060;-63
2021/09/19 06:15:50;;;;;;;6.13;3.63;;;21.80;69.40;;;;;;5197740;28;20042;-64
2021/09/19 06:18:23;;;;;;;6.18;3.47;;;21.80;69.30;;;;;;5182414;28;21064;-61
2021/09/19 06:20:56;;;;;;;7.67;3.50;;;21.80;69.40;;;;;;5167067;28;20037;-64
2021/09/19 06:23:30;;;;;;;8.98;4.13;;;21.80;69.40;;;;;;5185447;28;20067;-64
2021/09/19 06:26:03;;;;;;;4.88;3.40;;;21.80;69.40;;;;;;5191350;28;20068;-64
2021/09/19 06:28:35;;;;;;;4.43;3.22;;;21.80;69.40;;;;;;5193853;28;20053;-65
2021/09/19 06:31:07;;;;;;;5.43;3.38;;;21.80;69.40;;;;;;5196590;28;20071;-64
2021/09/19 06:33:41;;;;;;;3.85;3.10;;;21.80;70.10;;;;;;5186735;28;20052;-62
2021/09/19 06:36:13;;;;;;;5.55;3.20;;;21.80;70.10;;;;;;5180508;28;20041;-63
2021/09/19 06:38:46;;;;;;;5.55;3.22;;;21.80;70.10;;;;;;5177518;28;20060;-63
2021/09/19 06:41:18;;;;;;;5.97;3.13;;;21.80;69.50;;;;;;5182959;28;20069;-63
2021/09/19 06:43:51;;;;;;;5.80;3.55;;;21.80;69.90;;;;;;5185995;28;21474;-64
2021/09/19 06:46:27;;;;;;;11.50;3.33;;;21.80;69.80;;;;;;5181490;28;20060;-63
2021/09/19 06:49:01;;;;;;;8.85;4.00;;;21.80;70.10;;;;;;5182604;28;20049;-64
2021/09/19 06:51:33;;;;;;;5.43;3.30;;;21.80;70.10;;;;;;5183669;28;20043;-64
2021/09/19 06:54:05;;;;;;;8.35;3.45;;;21.80;70.10;;;;;;5183592;28;20053;-64
2021/09/19 06:56:38;;;;;;;6.65;3.47;;;21.80;70.20;;;;;;5181141;28;20053;-62
2021/09/19 06:59:11;;;;;;;8.77;3.92;;;21.90;70.20;;;;;;5184983;28;20072;-64
2021/09/19 07:01:44;;;;;;;10.07;3.67;;;21.90;70.40;;;;;;5181989;28;20041;-63
2021/09/19 07:04:17;;;;;;;12.95;3.65;;;21.90;70.20;;;;;;5190288;28;20052;-63
2021/09/19 07:06:50;;;;;;;14.10;4.10;;;21.90;70.50;;;;;;5194018;28;20053;-63
2021/09/19 07:09:23;;;;;;;8.63;3.42;;;21.90;70.60;;;;;;5189034;28;20057;-64
2021/09/19 07:11:56;;;;;;;19.73;5.05;;;21.90;70.70;;;;;;5189540;28;20053;-64
2021/09/19 07:14:28;;;;;;;59.67;7.07;;;21.90;70.90;;;;;;5172492;28;20064;-63
2021/09/19 07:17:00;;;;;;;36.33;5.47;;;21.90;71.20;;;;;;5162593;28;20512;-63
2021/09/19 07:19:33;;;;;;;42.10;5.83;;;21.90;71.30;;;;;;5177569;28;20053;-62
2021/09/19 07:22:05;;;;;;;40.35;6.20;;;21.90;71.30;;;;;;5188810;28;20049;-63
2021/09/19 07:24:38;;;;;;;26.90;5.40;;;21.90;71.20;;;;;;5184587;28;20049;-64
2021/09/19 07:27:11;;;;;;;20.90;4.57;;;21.90;71.10;;;;;;5192177;28;20045;-62
2021/09/19 07:29:43;;;;;;;20.83;4.72;;;22.00;71.10;;;;;;5183434;28;21143;-64
2021/09/19 07:32:16;;;;;;;25.83;5.50;;;21.90;71.00;;;;;;5187839;28;20544;-62
2021/09/19 07:34:49;;;;;;;27.38;6.20;;;21.90;70.90;;;;;;5185032;28;20505;-63
2021/09/19 07:37:22;;;;;;;10.85;4.32;;;21.90;70.60;;;;;;5189042;28;21721;-63
2021/09/19 07:39:54;;;;;;;12.93;4.60;;;21.90;70.30;;;;;;5189707;28;20041;-63
2021/09/19 07:42:27;;;;;;;13.40;4.32;;;22.00;70.30;;;;;;5194568;28;20057;-62
2021/09/19 07:45:00;;;;;;;14.33;4.23;;;22.00;70.20;;;;;;5184254;28;20063;-63
2021/09/19 07:47:33;;;;;;;13.40;3.88;;;22.00;70.10;;;;;;5182176;28;20049;-64
2021/09/19 07:50:07;;;;;;;13.47;4.50;;;21.90;69.90;;;;;;5180424;28;20053;-63
2021/09/19 07:52:40;;;;;;;27.25;4.90;;;21.90;69.90;;;;;;5197806;28;20045;-62
2021/09/19 07:55:15;;;;;;;18.03;5.23;;;22.00;70.10;;;;;;5175801;28;20453;-63
2021/09/19 07:57:47;;;;;;;18.48;4.60;;;21.90;70.10;;;;;;5178619;28;20533;-63
2021/09/19 08:00:20;;;;;;;33.55;5.03;;;22.00;70.20;;;;;;5185855;28;20053;-62
2021/09/19 08:02:54;;;;;;;14.40;4.77;;;22.00;70.10;;;;;;5192408;28;20060;-64
2021/09/19 08:05:26;;;;;;;18.65;4.00;;;22.00;70.00;;;;;;5192556;28;20045;-63
2021/09/19 08:07:59;;;;;;;10.93;4.30;;;22.00;69.90;;;;;;5197465;28;20044;-63
2021/09/19 08:10:31;;;;;;;12.68;4.50;;;21.90;69.80;;;;;;5191033;28;20045;-63
2021/09/19 08:13:04;;;;;;;14.57;3.73;;;22.00;69.90;;;;;;5182458;28;20608;-70
2021/09/19 08:15:36;;;;;;;9.45;3.80;;;22.00;69.80;;;;;;5180070;28;20403;-69
2021/09/19 08:18:09;;;;;;;15.23;4.30;;;22.00;70.00;;;;;;5173422;28;20049;-67
2021/09/19 08:20:41;;;;;;;10.35;3.63;;;22.10;70.10;;;;;;5157362;28;20053;-69
2021/09/19 08:23:14;;;;;;;11.55;4.30;;;22.20;69.90;;;;;;5148490;28;20057;-69
2021/09/19 08:25:47;;;;;;;8.93;3.50;;;22.30;69.80;;;;;;5165291;28;20056;-69
2021/09/19 08:28:19;;;;;;;9.32;3.67;;;22.40;69.60;;;;;;5169065;28;20049;-69
2021/09/19 08:30:51;;;;;;;13.75;4.38;;;22.50;69.50;;;;;;5158989;28;22282;-69
2021/09/19 08:33:27;;;;;;;11.35;3.80;;;22.60;69.40;;;;;;5163350;28;20053;-69
2021/09/19 08:36:00;;;;;;;9.85;3.85;;;22.70;69.30;;;;;;5171030;28;20352;-70
2021/09/19 08:38:32;;;;;;;13.77;4.17;;;22.80;69.10;;;;;;5162802;28;20068;-69
2021/09/19 08:41:05;;;;;;;12.07;3.70;;;22.90;69.00;;;;;;5166663;28;20308;-69
2021/09/19 08:43:37;;;;;;;10.88;3.65;;;22.90;68.80;;;;;;5164901;28;20038;-70
2021/09/19 08:46:14;;;;;;;15.73;3.85;;;23.00;68.70;;;;;;5163996;28;20434;-70
2021/09/19 08:48:47;;;;;;;17.55;4.85;;;23.10;68.50;;;;;;5152837;28;20052;-70
2021/09/19 08:51:19;;;;;;;18.33;4.10;;;23.10;68.30;;;;;;5169206;28;20037;-69
2021/09/19 08:53:52;;;;;;;8.35;3.85;;;23.20;68.20;;;;;;5165853;28;20058;-67
2021/09/19 08:56:26;;;;;;;14.80;4.25;;;23.30;68.20;;;;;;5170566;28;20053;-68
2021/09/19 08:58:59;;;;;;;18.75;4.72;;;23.40;68.00;;;;;;5169601;28;20044;-68
2021/09/19 09:01:31;;;;;;;15.15;4.05;;;23.40;67.90;;;;;;5161353;28;20529;-67
2021/09/19 09:04:05;;;;;;;10.65;3.40;;;23.50;67.70;;;;;;5164011;28;20786;-68
2021/09/19 09:06:39;;;;;;;14.95;4.05;;;23.60;67.60;;;;;;5147805;28;20642;-68
2021/09/19 09:09:16;;;;;;;9.98;3.42;;;23.60;67.40;;;;;;5163329;28;20773;-68
2021/09/19 09:12:07;;;;;;;16.60;4.05;;;23.70;67.20;;;;;;5152686;28;20316;-68
2021/09/19 09:14:49;;;;;;;11.90;3.85;;;23.80;67.10;;;;;;5145295;28;20049;-70
2021/09/19 09:17:27;;;;;;;16.70;4.07;;;23.80;67.10;;;;;;5139087;28;20072;-68
2021/09/19 09:20:00;;;;;;;12.60;3.83;;;23.90;66.90;;;;;;5139734;28;21324;-67
2021/09/19 09:22:36;;;;;;;23.33;4.30;;;23.90;66.60;;;;;;5155860;28;20042;-67
2021/09/19 09:25:15;;;;;;;10.20;3.63;;;24.00;66.50;;;;;;5152429;28;20493;-67
2021/09/19 09:27:50;;;;;;;10.20;3.92;;;24.00;66.50;;;;;;5128763;28;20045;-67
2021/09/19 09:30:26;;;;;;;16.08;4.25;;;24.00;66.60;;;;;;5142068;28;20168;-66
2021/09/19 09:33:04;;;;;;;13.23;4.25;;;24.00;66.70;;;;;;5151703;28;20057;-69
2021/09/19 09:35:40;;;;;;;24.08;4.43;;;24.00;66.50;;;;;;5135216;28;20057;-68
2021/09/19 09:38:22;;;;;;;13.15;4.47;;;24.00;66.20;;;;;;5140079;28;20482;-68
2021/09/19 09:40:57;;;;;;;25.35;4.78;;;24.00;66.50;;;;;;5137838;28;21126;-68
2021/09/19 09:43:30;;;;;;;13.73;4.75;;;24.00;66.60;;;;;;5145693;28;20045;-68
2021/09/19 09:46:10;;;;;;;9.55;4.13;;;24.00;66.80;;;;;;5148568;28;20046;-68
2021/09/19 09:48:44;;;;;;;13.38;3.70;;;23.90;66.90;;;;;;5138843;28;20402;-68
2021/09/19 09:51:23;;;;;;;;;;;23.90;67.00;;;;;;5149092;28;20145;-68
2021/09/19 09:54:00;;;;;;;18.50;4.05;;;23.90;67.00;;;;;;5152061;28;19929;-68
2021/09/19 09:56:34;;;;;;;12.52;4.38;;;23.90;67.30;;;;;;5141966;28;20049;-69
2021/09/19 09:59:08;;;;;;;9.77;3.50;;;23.90;67.30;;;;;;5148017;28;20057;-67
2021/09/19 10:01:41;;;;;;;17.50;3.88;;;23.90;67.20;;;;;;5154530;28;20056;-69
2021/09/19 10:04:15;;;;;;;12.40;4.03;;;23.90;67.30;;;;;;5153245;28;20552;-69
2021/09/19 10:06:48;;;;;;;12.32;4.32;;;23.90;67.30;;;;;;5152332;28;20033;-68
2021/09/19 10:09:22;;;;;;;15.77;3.90;;;23.90;67.40;;;;;;5160840;28;20487;-68
2021/09/19 10:11:54;;;;;;;;;;;23.90;67.50;;;;;;5149886;28;20509;-68
2021/09/19 10:14:27;;;;;;;13.32;4.78;;;23.80;66.60;;;;;;5150723;28;20361;-68
2021/09/19 10:16:59;;;;;;;11.83;4.67;;;23.80;67.20;;;;;;5153804;28;20045;-68
2021/09/19 10:19:33;;;;;;;21.65;5.05;;;23.80;67.20;;;;;;5138514;28;20519;-69
2021/09/19 10:22:06;;;;;;;15.10;4.45;;;23.80;67.30;;;;;;5129100;28;20072;-69
2021/09/19 10:24:39;;;;;;;20.77;4.90;;;23.90;67.30;;;;;;5134783;28;20053;-68
2021/09/19 10:27:24;;;;;;;13.43;4.63;;;23.90;67.50;;;;;;5156984;28;20077;-69
2021/09/19 10:30:10;;;;;;;19.35;4.53;;;23.90;67.40;;;;;;5146037;28;20540;-69
2021/09/19 10:32:45;;;;;;;20.85;5.30;;;23.90;67.50;;;;;;5152292;28;20060;-69
2021/09/19 10:35:18;;;;;;;24.45;4.90;;;23.90;67.60;;;;;;5159960;28;20050;-69
2021/09/19 10:38:00;;;;;;;16.50;5.70;;;23.80;67.20;;;;;;5160213;28;20049;-68
2021/09/19 10:40:38;;;;;;;24.98;5.80;;;23.90;66.90;;;;;;5134851;28;20427;-68
2021/09/19 10:43:21;;;;;;;27.65;5.55;;;23.90;66.60;;;;;;5141857;28;26389;-69
2021/09/19 10:45:53;;;;;;;25.53;7.27;;;23.90;66.50;;;;;;5155826;28;20076;-69
2021/09/19 10:48:28;;;;;;;21.50;6.05;;;23.90;66.10;;;;;;5149422;28;20068;-69
2021/09/19 10:51:06;;;;;;;21.48;6.70;;;23.80;66.20;;;;;;5153360;28;20045;-69
2021/09/19 10:53:47;;;;;;;22.98;5.80;;;23.90;66.30;;;;;;5160916;28;20045;-68
2021/09/19 10:56:23;;;;;;;19.13;6.70;;;23.90;66.50;;;;;;5144430;28;20041;-68
2021/09/19 10:58:55;;;;;;;21.55;6.22;;;23.90;66.50;;;;;;5148409;28;20824;-69
2021/09/19 11:01:35;;;;;;;11.93;5.93;;;24.00;66.50;;;;;;5155825;28;20045;-68
2021/09/19 11:04:10;;;;;;;16.77;5.72;;;24.00;66.40;;;;;;5153183;28;20505;-68
2021/09/19 11:06:43;;;;;;;17.45;5.60;;;24.00;66.20;;;;;;5154417;28;20061;-69
2021/09/19 11:09:21;;;;;;;24.80;5.80;;;24.00;66.00;;;;;;5159154;28;20208;-69
2021/09/19 11:12:10;;;;;;;14.57;5.47;;;24.00;65.90;;;;;;5150583;28;20046;-69
2021/09/19 11:15:06;;;;;;;13.02;5.45;;;24.00;65.80;;;;;;5150897;28;20049;-68
2021/09/19 11:17:44;;;;;;;12.15;5.18;;;24.00;65.80;;;;;;5157785;28;20069;-69
2021/09/19 11:20:17;;;;;;;13.10;6.05;;;24.10;65.90;;;;;;5155057;28;20524;-69
2021/09/19 12:06:02;;;;;;;13.48;7.05;;;23.50;66.50;;;;;;5151189;27;20374;-69
2021/09/19 12:08:36;;;;;;;11.77;7.00;;;23.50;66.80;;;;;;5171174;28;20052;-64
2021/09/19 12:11:10;;;;;;;15.73;6.93;;;23.60;67.50;;;;;;5170255;28;20053;-63
2021/09/19 12:13:47;;;;;;;12.55;7.28;;;23.60;67.70;;;;;;5192564;28;20060;-61
2021/09/19 12:16:22;;;;;;;17.42;6.70;;;23.60;67.50;;;;;;5186529;28;20408;-62
2021/09/19 12:18:55;;;;;;;11.15;7.07;;;23.70;67.60;;;;;;5188274;28;20050;-62
2021/09/19 12:21:27;;;;;;;10.07;6.93;;;23.70;67.60;;;;;;5184301;28;20060;-62
2021/09/19 12:24:00;;;;;;;13.55;7.10;;;23.70;67.60;;;;;;5184171;28;20509;-62
2021/09/19 12:26:33;;;;;;;11.20;6.63;;;23.70;67.60;;;;;;5176728;28;20452;-61
2021/09/19 12:29:08;;;;;;;11.70;6.90;;;23.70;67.60;;;;;;5182682;28;20128;-60
2021/09/19 12:31:42;;;;;;;15.95;6.80;;;23.70;67.60;;;;;;5163026;28;20046;-61
2021/09/19 12:34:21;;;;;;;8.73;6.40;;;23.70;67.60;;;;;;5175599;28;20420;-61
2021/09/19 12:36:55;;;;;;;9.30;6.15;;;23.80;67.80;;;;;;5196301;28;20052;-63
2021/09/19 12:39:33;;;;;;;10.95;6.60;;;23.80;67.80;;;;;;5192811;28;20436;-60
2021/09/19 12:42:06;;;;;;;10.00;6.25;;;23.80;67.80;;;;;;5185301;28;20059;-63
2021/09/19 12:44:39;;;;;;;;;;;23.90;67.80;;;;;;5186619;28;20595;-59
2021/09/19 12:47:12;;;;;;;11.88;6.30;;;23.90;67.70;;;;;;5189324;28;19940;-61
2021/09/19 12:49:46;;;;;;;8.20;5.93;;;23.90;67.80;;;;;;5190375;28;20049;-61
2021/09/19 12:52:19;;;;;;;13.05;6.22;;;24.00;67.80;;;;;;5188603;28;20086;-61
2021/09/19 12:54:54;;;;;;;14.23;6.97;;;23.90;67.80;;;;;;5194990;28;20056;-61
2021/09/19 12:57:28;;;;;;;10.35;6.15;;;23.90;68.00;;;;;;5196390;28;20045;-61
2021/09/19 13:00:01;;;;;;;10.48;6.45;;;23.90;67.80;;;;;;5195763;28;20432;-61
2021/09/19 13:02:58;;;;;;;11.40;6.82;;;24.00;67.90;;;;;;5195913;28;20045;-61
2021/09/19 13:05:32;;;;;;;11.98;6.53;;;23.90;67.70;;;;;;5153475;28;20056;-61
2021/09/19 13:08:05;;;;;;;11.23;5.90;;;23.90;67.90;;;;;;5183397;28;20037;-63
2021/09/19 13:10:37;;;;;;;8.30;6.17;;;24.00;67.90;;;;;;5191083;28;20056;-61
2021/09/19 13:13:10;;;;;;;9.40;5.78;;;24.00;68.00;;;;;;5187926;28;20049;-63
2021/09/19 13:15:43;;;;;;;10.77;5.95;;;24.00;68.00;;;;;;5198776;28;20048;-61
2021/09/19 13:18:16;;;;;;;12.83;6.40;;;24.00;67.80;;;;;;5196010;28;20040;-62
2021/09/19 13:20:48;;;;;;;11.90;6.53;;;24.00;67.40;;;;;;5189689;28;20056;-61
2021/09/19 13:23:21;;;;;;;13.35;5.85;;;24.00;67.10;;;;;;5186841;28;20075;-61
2021/09/19 13:25:53;;;;;;;21.98;6.28;;;24.00;67.00;;;;;;5160871;28;20055;-62
2021/09/19 13:28:26;;;;;;;9.90;6.80;;;24.00;66.60;;;;;;5191921;28;20424;-61
2021/09/19 13:30:58;;;;;;;9.65;5.63;;;23.90;66.70;;;;;;5196099;28;20071;-60
2021/09/19 13:33:32;;;;;;;7.95;5.63;;;23.90;66.90;;;;;;5197687;28;20041;-62
2021/09/19 13:36:05;;;;;;;9.88;5.30;;;23.90;67.20;;;;;;5182726;28;20060;-61
2021/09/19 13:38:37;;;;;;;7.28;5.80;;;23.90;67.30;;;;;;5183503;28;20502;-61
2021/09/19 13:41:10;;;;;;;9.20;5.20;;;23.90;67.30;;;;;;5179300;28;20611;-63
2021/09/19 13:43:43;;;;;;;19.02;5.47;;;23.80;67.20;;;;;;5188997;28;20052;-61
2021/09/19 13:46:15;;;;;;;10.75;5.30;;;23.80;67.20;;;;;;5177161;28;20053;-61
2021/09/19 13:48:48;;;;;;;11.55;5.50;;;23.80;67.10;;;;;;5181028;28;20044;-62
2021/09/19 13:51:24;;;;;;;11.27;5.05;;;23.70;67.10;;;;;;5193396;28;20350;-62
2021/09/19 13:53:57;;;;;;;6.72;4.60;;;23.70;67.10;;;;;;5190753;28;20564;-63
2021/09/19 13:56:30;;;;;;;6.35;4.90;;;23.70;67.20;;;;;;5184088;28;20053;-62
2021/09/19 13:59:04;;;;;;;8.43;5.05;;;23.70;67.20;;;;;;5191359;28;20384;-61